メインページ
METAR-TAF:

METAR-TAF

空港 :

セントキャサリンズ, オンタリオ州, カナダ

緯度: 43-12N, 経度: 079-10W, 海抜: 98m

現時点の気象観測

当レポートは30分前の18:13(UTC)に作成
南西の風 14kt
気温 28°C
湿度 100%
気圧 1010 hPa
視程: 1.6km
高度2500ftの曇り, 積乱雲.
激しい雷雨, 小雨

METAR: CYSN 191813Z 23014KT 1SM -TSRA OVC025CB 28/28 A2983 RMK CB8 OCNL LTGCG N SLP102 DENSITY ALT 2100FT

時間: 14:43 (18:43 UTC)

予報

当レポートは1時間26分前の17:17(UTC)に作成
予報は19日の 17時(UTC)から 20日の 01時(UTC)まで有効
南西の風 10kt、最大20ktの突風を伴う
視程: 10km
高度2000ftの雲は散在している
高度3000ftの千切れ雲あり
19日の 17時(UTC)から 19日の 20時(UTC)まで一時的に
変向風 15kt、最大30ktの突風を伴う
視程: 1.6km
高度2000ftの千切れ雲あり
高度3000ftの千切れ雲あり, 積乱雲.
激しい雷雨, 大雨, 靄
19日の 2000時(UTC)から
南西の風 12kt、最大22ktの突風を伴う
視程: 10km
高度5000ftの千切れ雲あり
19日の 20時(UTC)から 20日の 01時(UTC)まで一時的に
視程: 10km
弱いにわか雨
確率 30%
19日の 20時(UTC)から 20日の 01時(UTC)まで
変向風 20kt、最大30ktの突風を伴う
視程: 1.6km
高度1500ftの千切れ雲あり
高度3000ftの曇り, 積乱雲.
激しい雷雨, 大雨, 靄

TAF: CYSN 191717Z 1917/2001 23010G20KT P6SM SCT020 BKN030 TEMPO 1917/1920 VRB15G30KT 1SM +TSRA BR BKN020 BKN030CB FM192000 23012G22KT P6SM BKN050 TEMPO 1920/2001 P6SM -SHRA PROB30 1920/2001 VRB20G30KT 1SM +TSRA BR BKN015 OVC030CB RMK NXT FCST BY 192000Z

4,000以上の空港の気象観測と天気予報(METAR報とTAF報)

利用可能な観測所は地図上に黄色い丸と赤い丸で示す。

丸の上にカーソルを重ねると観測所名を参照できる。

次にクリックすると気象観測と天気予報を参照できる。

マップの切り替え:黒色「×」印の緑ボタンをクリックして拡大、「-」印の緑ボタンをクリックして縮小、緑色の三角印をクリックして隣りの地図に切り替え


METAR-TAF: